sensor_id;sensor_type;location;lat;lon;timestamp;temperature;humidity
49489;SHT31;35382;51.484;11.476;2023-08-20T00:00:02;22.01;83.97
49489;SHT31;35382;51.484;11.476;2023-08-20T00:02:28;21.99;84.21
49489;SHT31;35382;51.484;11.476;2023-08-20T00:04:57;21.96;84.10
49489;SHT31;35382;51.484;11.476;2023-08-20T00:07:23;21.95;83.65
49489;SHT31;35382;51.484;11.476;2023-08-20T00:09:48;21.89;84.00
49489;SHT31;35382;51.484;11.476;2023-08-20T00:12:14;21.89;83.98
49489;SHT31;35382;51.484;11.476;2023-08-20T00:14:56;21.92;83.94
49489;SHT31;35382;51.484;11.476;2023-08-20T00:17:22;22.01;83.91
49489;SHT31;35382;51.484;11.476;2023-08-20T00:19:48;22.16;83.85
49489;SHT31;35382;51.484;11.476;2023-08-20T00:22:15;22.25;83.77
49489;SHT31;35382;51.484;11.476;2023-08-20T00:24:41;22.32;83.87
49489;SHT31;35382;51.484;11.476;2023-08-20T00:27:06;22.20;84.08
49489;SHT31;35382;51.484;11.476;2023-08-20T00:29:32;22.22;84.14
49489;SHT31;35382;51.484;11.476;2023-08-20T00:31:57;22.35;83.62
49489;SHT31;35382;51.484;11.476;2023-08-20T00:34:23;22.39;83.76
49489;SHT31;35382;51.484;11.476;2023-08-20T00:36:48;22.59;82.64
49489;SHT31;35382;51.484;11.476;2023-08-20T00:39:13;22.48;83.38
49489;SHT31;35382;51.484;11.476;2023-08-20T00:41:39;22.63;82.74
49489;SHT31;35382;51.484;11.476;2023-08-20T00:44:04;22.53;83.21
49489;SHT31;35382;51.484;11.476;2023-08-20T00:46:30;22.52;83.23
49489;SHT31;35382;51.484;11.476;2023-08-20T00:48:56;22.45;83.86
49489;SHT31;35382;51.484;11.476;2023-08-20T00:51:22;22.42;84.08
49489;SHT31;35382;51.484;11.476;2023-08-20T00:53:47;22.45;83.97
49489;SHT31;35382;51.484;11.476;2023-08-20T00:56:14;22.50;83.99
49489;SHT31;35382;51.484;11.476;2023-08-20T00:58:39;22.59;83.92
49489;SHT31;35382;51.484;11.476;2023-08-20T01:01:05;22.59;84.10
49489;SHT31;35382;51.484;11.476;2023-08-20T01:03:30;22.48;84.68
49489;SHT31;35382;51.484;11.476;2023-08-20T01:06:09;22.59;83.81
49489;SHT31;35382;51.484;11.476;2023-08-20T01:08:39;22.62;83.75
49489;SHT31;35382;51.484;11.476;2023-08-20T01:11:24;22.56;84.00
49489;SHT31;35382;51.484;11.476;2023-08-20T01:13:50;22.60;83.92
49489;SHT31;35382;51.484;11.476;2023-08-20T01:16:16;22.49;84.49
49489;SHT31;35382;51.484;11.476;2023-08-20T01:18:41;22.49;84.32
49489;SHT31;35382;51.484;11.476;2023-08-20T01:24:38;22.56;84.32
49489;SHT31;35382;51.484;11.476;2023-08-20T01:27:14;22.59;84.38
49489;SHT31;35382;51.484;11.476;2023-08-20T01:29:43;22.60;84.24
49489;SHT31;35382;51.484;11.476;2023-08-20T01:32:09;22.62;84.40
49489;SHT31;35382;51.484;11.476;2023-08-20T01:34:36;22.79;83.60
49489;SHT31;35382;51.484;11.476;2023-08-20T01:37:01;22.60;84.51
49489;SHT31;35382;51.484;11.476;2023-08-20T01:39:27;22.73;83.83
49489;SHT31;35382;51.484;11.476;2023-08-20T01:41:52;22.56;84.51
49489;SHT31;35382;51.484;11.476;2023-08-20T01:44:18;22.56;84.72
49489;SHT31;35382;51.484;11.476;2023-08-20T01:46:43;22.50;84.95
49489;SHT31;35382;51.484;11.476;2023-08-20T01:49:08;22.43;85.27
49489;SHT31;35382;51.484;11.476;2023-08-20T01:51:34;22.50;85.06
49489;SHT31;35382;51.484;11.476;2023-08-20T01:53:59;22.35;85.82
49489;SHT31;35382;51.484;11.476;2023-08-20T01:56:25;22.30;86.06
49489;SHT31;35382;51.484;11.476;2023-08-20T01:58:51;22.32;85.98
49489;SHT31;35382;51.484;11.476;2023-08-20T02:01:16;22.29;86.05
49489;SHT31;35382;51.484;11.476;2023-08-20T02:03:41;22.22;86.61
49489;SHT31;35382;51.484;11.476;2023-08-20T02:06:07;22.20;86.54
49489;SHT31;35382;51.484;11.476;2023-08-20T02:08:32;22.04;87.14
49489;SHT31;35382;51.484;11.476;2023-08-20T02:11:01;22.01;87.58
49489;SHT31;35382;51.484;11.476;2023-08-20T02:13:26;22.04;87.17
49489;SHT31;35382;51.484;11.476;2023-08-20T02:16:00;22.06;87.24
49489;SHT31;35382;51.484;11.476;2023-08-20T02:18:27;22.12;87.21
49489;SHT31;35382;51.484;11.476;2023-08-20T02:20:53;22.09;87.03
49489;SHT31;35382;51.484;11.476;2023-08-20T02:23:22;22.04;87.58
49489;SHT31;35382;51.484;11.476;2023-08-20T02:25:50;21.88;88.25
49489;SHT31;35382;51.484;11.476;2023-08-20T02:28:15;21.99;87.77
49489;SHT31;35382;51.484;11.476;2023-08-20T02:30:42;22.16;87.26
49489;SHT31;35382;51.484;11.476;2023-08-20T02:33:07;22.13;87.12
49489;SHT31;35382;51.484;11.476;2023-08-20T02:35:33;22.05;87.62
49489;SHT31;35382;51.484;11.476;2023-08-20T02:37:58;21.94;88.04
49489;SHT31;35382;51.484;11.476;2023-08-20T02:40:24;21.94;87.93
49489;SHT31;35382;51.484;11.476;2023-08-20T02:42:49;21.96;87.84
49489;SHT31;35382;51.484;11.476;2023-08-20T02:45:14;21.88;88.04
49489;SHT31;35382;51.484;11.476;2023-08-20T02:47:40;21.88;88.27
49489;SHT31;35382;51.484;11.476;2023-08-20T02:50:05;22.08;87.35
49489;SHT31;35382;51.484;11.476;2023-08-20T02:52:31;22.02;87.41
49489;SHT31;35382;51.484;11.476;2023-08-20T02:54:57;21.98;87.29
49489;SHT31;35382;51.484;11.476;2023-08-20T02:57:22;21.84;87.65
49489;SHT31;35382;51.484;11.476;2023-08-20T02:59:48;21.84;87.47
49489;SHT31;35382;51.484;11.476;2023-08-20T03:02:13;21.68;87.95
49489;SHT31;35382;51.484;11.476;2023-08-20T03:04:39;21.72;87.73
49489;SHT31;35382;51.484;11.476;2023-08-20T03:07:04;21.72;87.36
49489;SHT31;35382;51.484;11.476;2023-08-20T03:09:30;21.65;87.40
49489;SHT31;35382;51.484;11.476;2023-08-20T03:11:55;21.72;86.85
49489;SHT31;35382;51.484;11.476;2023-08-20T03:14:21;21.78;86.52
49489;SHT31;35382;51.484;11.476;2023-08-20T03:16:46;21.64;86.91
49489;SHT31;35382;51.484;11.476;2023-08-20T03:19:14;21.64;86.16
49489;SHT31;35382;51.484;11.476;2023-08-20T03:21:40;21.61;85.75
49489;SHT31;35382;51.484;11.476;2023-08-20T03:24:06;21.51;86.08
49489;SHT31;35382;51.484;11.476;2023-08-20T03:26:32;21.54;85.53
49489;SHT31;35382;51.484;11.476;2023-08-20T03:28:57;21.66;85.15
49489;SHT31;35382;51.484;11.476;2023-08-20T03:31:23;21.78;84.67
49489;SHT31;35382;51.484;11.476;2023-08-20T03:33:49;21.62;85.12
49489;SHT31;35382;51.484;11.476;2023-08-20T03:36:15;21.61;85.21
49489;SHT31;35382;51.484;11.476;2023-08-20T03:38:41;21.59;85.47
49489;SHT31;35382;51.484;11.476;2023-08-20T03:41:06;21.58;85.58
49489;SHT31;35382;51.484;11.476;2023-08-20T03:43:32;21.51;85.94
49489;SHT31;35382;51.484;11.476;2023-08-20T03:45:57;21.38;86.56
49489;SHT31;35382;51.484;11.476;2023-08-20T03:48:23;21.48;86.09
49489;SHT31;35382;51.484;11.476;2023-08-20T03:50:49;21.47;86.51
49489;SHT31;35382;51.484;11.476;2023-08-20T03:53:15;21.38;86.86
49489;SHT31;35382;51.484;11.476;2023-08-20T03:55:41;21.28;87.35
49489;SHT31;35382;51.484;11.476;2023-08-20T03:58:08;21.17;87.82
49489;SHT31;35382;51.484;11.476;2023-08-20T04:00:34;21.15;88.19
49489;SHT31;35382;51.484;11.476;2023-08-20T04:03:01;21.12;88.40
49489;SHT31;35382;51.484;11.476;2023-08-20T04:05:27;21.12;88.80
49489;SHT31;35382;51.484;11.476;2023-08-20T04:07:52;21.10;89.15
49489;SHT31;35382;51.484;11.476;2023-08-20T04:10:19;21.15;89.17
49489;SHT31;35382;51.484;11.476;2023-08-20T04:12:45;21.07;89.51
49489;SHT31;35382;51.484;11.476;2023-08-20T04:15:10;21.10;89.49
49489;SHT31;35382;51.484;11.476;2023-08-20T04:17:36;21.08;89.89
49489;SHT31;35382;51.484;11.476;2023-08-20T04:20:01;21.03;90.10
49489;SHT31;35382;51.484;11.476;2023-08-20T04:22:27;21.03;89.94
49489;SHT31;35382;51.484;11.476;2023-08-20T04:24:52;21.10;89.84
49489;SHT31;35382;51.484;11.476;2023-08-20T04:27:18;21.07;89.95
49489;SHT31;35382;51.484;11.476;2023-08-20T04:29:44;21.07;89.85
49489;SHT31;35382;51.484;11.476;2023-08-20T04:32:09;21.12;89.63
49489;SHT31;35382;51.484;11.476;2023-08-20T04:34:35;21.12;89.44
49489;SHT31;35382;51.484;11.476;2023-08-20T04:37:00;21.15;89.34
49489;SHT31;35382;51.484;11.476;2023-08-20T04:39:25;21.11;89.79
49489;SHT31;35382;51.484;11.476;2023-08-20T04:41:52;21.15;89.72
49489;SHT31;35382;51.484;11.476;2023-08-20T04:44:20;21.26;89.29
49489;SHT31;35382;51.484;11.476;2023-08-20T04:46:46;21.24;89.25
49489;SHT31;35382;51.484;11.476;2023-08-20T04:49:12;21.28;88.92
49489;SHT31;35382;51.484;11.476;2023-08-20T04:51:38;21.24;89.22
49489;SHT31;35382;51.484;11.476;2023-08-20T04:54:04;21.23;89.08
49489;SHT31;35382;51.484;11.476;2023-08-20T04:56:29;21.26;89.05
49489;SHT31;35382;51.484;11.476;2023-08-20T04:58:55;21.38;88.72
49489;SHT31;35382;51.484;11.476;2023-08-20T05:01:41;21.34;89.01
49489;SHT31;35382;51.484;11.476;2023-08-20T05:04:08;21.48;88.39
49489;SHT31;35382;51.484;11.476;2023-08-20T05:06:33;21.35;88.93
49489;SHT31;35382;51.484;11.476;2023-08-20T05:08:59;21.50;88.39
49489;SHT31;35382;51.484;11.476;2023-08-20T05:11:25;21.54;88.35
49489;SHT31;35382;51.484;11.476;2023-08-20T05:13:51;21.68;87.94
49489;SHT31;35382;51.484;11.476;2023-08-20T05:16:17;21.64;87.98
49489;SHT31;35382;51.484;11.476;2023-08-20T05:18:44;21.52;88.35
49489;SHT31;35382;51.484;11.476;2023-08-20T05:21:28;21.62;88.01
49489;SHT31;35382;51.484;11.476;2023-08-20T05:24:04;21.58;88.43
49489;SHT31;35382;51.484;11.476;2023-08-20T05:26:30;21.52;88.46
49489;SHT31;35382;51.484;11.476;2023-08-20T05:28:56;21.52;88.30
49489;SHT31;35382;51.484;11.476;2023-08-20T05:31:21;21.66;88.27
49489;SHT31;35382;51.484;11.476;2023-08-20T05:33:46;21.61;88.07
49489;SHT31;35382;51.484;11.476;2023-08-20T05:36:12;21.66;87.60
49489;SHT31;35382;51.484;11.476;2023-08-20T05:38:38;21.66;87.62
49489;SHT31;35382;51.484;11.476;2023-08-20T05:41:03;21.68;87.82
49489;SHT31;35382;51.484;11.476;2023-08-20T05:43:29;21.65;87.46
49489;SHT31;35382;51.484;11.476;2023-08-20T05:45:55;21.85;87.69
49489;SHT31;35382;51.484;11.476;2023-08-20T05:48:22;21.92;87.32
49489;SHT31;35382;51.484;11.476;2023-08-20T05:50:47;22.02;86.70
49489;SHT31;35382;51.484;11.476;2023-08-20T05:53:14;22.10;86.80
49489;SHT31;35382;51.484;11.476;2023-08-20T05:55:40;22.13;86.00
49489;SHT31;35382;51.484;11.476;2023-08-20T05:58:08;22.02;86.10
49489;SHT31;35382;51.484;11.476;2023-08-20T06:00:33;21.98;86.31
49489;SHT31;35382;51.484;11.476;2023-08-20T06:02:59;21.88;86.75
49489;SHT31;35382;51.484;11.476;2023-08-20T06:05:24;21.79;87.10
49489;SHT31;35382;51.484;11.476;2023-08-20T06:07:50;21.69;87.48
49489;SHT31;35382;51.484;11.476;2023-08-20T06:10:15;21.79;86.87
49489;SHT31;35382;51.484;11.476;2023-08-20T06:12:40;21.72;87.06
49489;SHT31;35382;51.484;11.476;2023-08-20T06:15:07;21.71;86.80
49489;SHT31;35382;51.484;11.476;2023-08-20T06:17:33;21.85;86.32
49489;SHT31;35382;51.484;11.476;2023-08-20T06:19:58;21.91;85.51
49489;SHT31;35382;51.484;11.476;2023-08-20T06:22:24;21.94;85.78
49489;SHT31;35382;51.484;11.476;2023-08-20T06:24:49;21.94;85.76
49489;SHT31;35382;51.484;11.476;2023-08-20T06:27:14;22.15;85.23
49489;SHT31;35382;51.484;11.476;2023-08-20T06:29:40;22.35;84.36
49489;SHT31;35382;51.484;11.476;2023-08-20T06:32:05;22.53;83.84
49489;SHT31;35382;51.484;11.476;2023-08-20T06:34:31;22.39;85.05
49489;SHT31;35382;51.484;11.476;2023-08-20T06:36:59;22.20;85.04
49489;SHT31;35382;51.484;11.476;2023-08-20T06:39:24;22.06;85.31
49489;SHT31;35382;51.484;11.476;2023-08-20T06:41:50;22.01;84.73
49489;SHT31;35382;51.484;11.476;2023-08-20T06:44:19;22.06;85.16
49489;SHT31;35382;51.484;11.476;2023-08-20T06:46:45;22.12;84.95
49489;SHT31;35382;51.484;11.476;2023-08-20T06:49:10;22.38;84.13
49489;SHT31;35382;51.484;11.476;2023-08-20T06:51:35;22.92;82.74
49489;SHT31;35382;51.484;11.476;2023-08-20T06:54:01;23.11;81.70
49489;SHT31;35382;51.484;11.476;2023-08-20T06:56:27;23.16;81.60
49489;SHT31;35382;51.484;11.476;2023-08-20T06:58:54;23.28;81.14
49489;SHT31;35382;51.484;11.476;2023-08-20T07:01:20;23.28;80.75
49489;SHT31;35382;51.484;11.476;2023-08-20T07:03:45;23.34;81.44
49489;SHT31;35382;51.484;11.476;2023-08-20T07:06:11;23.33;80.18
49489;SHT31;35382;51.484;11.476;2023-08-20T07:08:39;23.16;80.37
49489;SHT31;35382;51.484;11.476;2023-08-20T07:11:05;23.04;81.58
49489;SHT31;35382;51.484;11.476;2023-08-20T07:13:31;23.07;81.10
49489;SHT31;35382;51.484;11.476;2023-08-20T07:15:56;23.17;80.38
49489;SHT31;35382;51.484;11.476;2023-08-20T07:18:22;23.04;81.05
49489;SHT31;35382;51.484;11.476;2023-08-20T07:20:47;23.43;80.47
49489;SHT31;35382;51.484;11.476;2023-08-20T07:23:13;24.08;77.72
49489;SHT31;35382;51.484;11.476;2023-08-20T07:25:39;24.35;76.78
49489;SHT31;35382;51.484;11.476;2023-08-20T07:28:05;24.43;77.05
49489;SHT31;35382;51.484;11.476;2023-08-20T07:30:31;23.71;78.76
49489;SHT31;35382;51.484;11.476;2023-08-20T07:32:57;23.46;79.13
49489;SHT31;35382;51.484;11.476;2023-08-20T07:35:23;23.24;79.92
49489;SHT31;35382;51.484;11.476;2023-08-20T07:37:48;23.14;81.01
49489;SHT31;35382;51.484;11.476;2023-08-20T07:40:14;23.27;81.06
49489;SHT31;35382;51.484;11.476;2023-08-20T07:42:43;23.10;80.92
49489;SHT31;35382;51.484;11.476;2023-08-20T07:45:09;23.11;81.51
49489;SHT31;35382;51.484;11.476;2023-08-20T07:47:36;23.27;80.72
49489;SHT31;35382;51.484;11.476;2023-08-20T07:50:02;23.17;80.59
49489;SHT31;35382;51.484;11.476;2023-08-20T07:52:28;22.99;79.54
49489;SHT31;35382;51.484;11.476;2023-08-20T07:54:53;23.24;78.99
49489;SHT31;35382;51.484;11.476;2023-08-20T07:57:18;23.46;77.99
49489;SHT31;35382;51.484;11.476;2023-08-20T07:59:44;23.93;77.31
49489;SHT31;35382;51.484;11.476;2023-08-20T08:02:09;24.35;76.08
49489;SHT31;35382;51.484;11.476;2023-08-20T08:04:35;24.53;76.17
49489;SHT31;35382;51.484;11.476;2023-08-20T08:07:00;24.48;75.61
49489;SHT31;35382;51.484;11.476;2023-08-20T08:09:28;24.43;74.96
49489;SHT31;35382;51.484;11.476;2023-08-20T08:11:53;24.52;75.08
49489;SHT31;35382;51.484;11.476;2023-08-20T08:14:19;24.45;74.88
49489;SHT31;35382;51.484;11.476;2023-08-20T08:16:46;24.95;73.91
49489;SHT31;35382;51.484;11.476;2023-08-20T08:19:11;24.65;75.72
49489;SHT31;35382;51.484;11.476;2023-08-20T08:21:37;24.35;75.49
49489;SHT31;35382;51.484;11.476;2023-08-20T08:24:03;24.76;75.51
49489;SHT31;35382;51.484;11.476;2023-08-20T08:26:29;25.61;71.88
49489;SHT31;35382;51.484;11.476;2023-08-20T08:28:54;25.95;69.14
49489;SHT31;35382;51.484;11.476;2023-08-20T08:31:20;26.04;70.02
49489;SHT31;35382;51.484;11.476;2023-08-20T08:33:45;26.14;69.86
49489;SHT31;35382;51.484;11.476;2023-08-20T08:36:11;26.34;68.61
49489;SHT31;35382;51.484;11.476;2023-08-20T08:38:38;26.14;68.47
49489;SHT31;35382;51.484;11.476;2023-08-20T08:41:07;26.13;66.86
49489;SHT31;35382;51.484;11.476;2023-08-20T08:43:35;26.17;69.89
49489;SHT31;35382;51.484;11.476;2023-08-20T08:46:04;26.72;67.03
49489;SHT31;35382;51.484;11.476;2023-08-20T08:48:31;26.95;67.00
49489;SHT31;35382;51.484;11.476;2023-08-20T08:50:57;26.99;66.61
49489;SHT31;35382;51.484;11.476;2023-08-20T08:53:24;27.02;66.01
49489;SHT31;35382;51.484;11.476;2023-08-20T08:55:50;26.20;67.91
49489;SHT31;35382;51.484;11.476;2023-08-20T08:58:15;26.71;68.34
49489;SHT31;35382;51.484;11.476;2023-08-20T09:00:40;26.93;67.21
49489;SHT31;35382;51.484;11.476;2023-08-20T09:03:06;26.41;66.20
49489;SHT31;35382;51.484;11.476;2023-08-20T09:05:31;26.67;68.53
49489;SHT31;35382;51.484;11.476;2023-08-20T09:07:59;27.05;67.37
49489;SHT31;35382;51.484;11.476;2023-08-20T09:10:27;27.13;66.95
49489;SHT31;35382;51.484;11.476;2023-08-20T09:12:54;27.56;64.71
49489;SHT31;35382;51.484;11.476;2023-08-20T09:15:20;26.35;66.29
49489;SHT31;35382;51.484;11.476;2023-08-20T09:17:46;26.62;65.53
49489;SHT31;35382;51.484;11.476;2023-08-20T09:20:11;27.19;64.79
49489;SHT31;35382;51.484;11.476;2023-08-20T09:22:37;26.71;66.84
49489;SHT31;35382;51.484;11.476;2023-08-20T09:25:02;25.91;68.61
49489;SHT31;35382;51.484;11.476;2023-08-20T09:27:28;26.18;67.62
49489;SHT31;35382;51.484;11.476;2023-08-20T09:29:56;26.49;68.17
49489;SHT31;35382;51.484;11.476;2023-08-20T09:32:24;26.38;67.59
49489;SHT31;35382;51.484;11.476;2023-08-20T09:34:51;26.39;69.55
49489;SHT31;35382;51.484;11.476;2023-08-20T09:37:19;26.83;68.46
49489;SHT31;35382;51.484;11.476;2023-08-20T09:39:45;27.19;67.82
49489;SHT31;35382;51.484;11.476;2023-08-20T09:42:13;27.17;66.56
49489;SHT31;35382;51.484;11.476;2023-08-20T09:44:40;26.89;67.01
49489;SHT31;35382;51.484;11.476;2023-08-20T09:47:08;26.38;66.41
49489;SHT31;35382;51.484;11.476;2023-08-20T09:49:46;26.51;69.11
49489;SHT31;35382;51.484;11.476;2023-08-20T09:52:16;26.69;69.10
49489;SHT31;35382;51.484;11.476;2023-08-20T09:57:35;26.99;67.16
49489;SHT31;35382;51.484;11.476;2023-08-20T10:00:03;27.45;65.74
49489;SHT31;35382;51.484;11.476;2023-08-20T10:02:39;27.10;67.20
49489;SHT31;35382;51.484;11.476;2023-08-20T10:05:12;26.58;68.55
49489;SHT31;35382;51.484;11.476;2023-08-20T10:07:38;26.79;67.41
49489;SHT31;35382;51.484;11.476;2023-08-20T10:10:05;27.30;65.94
49489;SHT31;35382;51.484;11.476;2023-08-20T10:12:32;27.56;65.87
49489;SHT31;35382;51.484;11.476;2023-08-20T10:14:58;27.81;65.57
49489;SHT31;35382;51.484;11.476;2023-08-20T10:17:24;28.85;61.62
49489;SHT31;35382;51.484;11.476;2023-08-20T10:19:53;28.74;63.05
49489;SHT31;35382;51.484;11.476;2023-08-20T10:22:19;28.28;65.05
49489;SHT31;35382;51.484;11.476;2023-08-20T10:27:24;28.13;63.36
49489;SHT31;35382;51.484;11.476;2023-08-20T10:29:54;28.14;64.92
49489;SHT31;35382;51.484;11.476;2023-08-20T10:32:21;28.17;65.15
49489;SHT31;35382;51.484;11.476;2023-08-20T10:35:06;28.25;64.71
49489;SHT31;35382;51.484;11.476;2023-08-20T10:37:31;28.78;63.19
49489;SHT31;35382;51.484;11.476;2023-08-20T10:39:57;28.58;64.49
49489;SHT31;35382;51.484;11.476;2023-08-20T10:42:26;28.33;63.50
49489;SHT31;35382;51.484;11.476;2023-08-20T10:45:07;27.93;65.67
49489;SHT31;35382;51.484;11.476;2023-08-20T10:47:47;27.57;66.19
49489;SHT31;35382;51.484;11.476;2023-08-20T10:50:17;27.77;65.68
49489;SHT31;35382;51.484;11.476;2023-08-20T10:52:54;28.24;64.73
49489;SHT31;35382;51.484;11.476;2023-08-20T10:55:23;28.52;65.66
49489;SHT31;35382;51.484;11.476;2023-08-20T10:57:57;28.43;64.93
49489;SHT31;35382;51.484;11.476;2023-08-20T11:00:22;28.40;65.91
49489;SHT31;35382;51.484;11.476;2023-08-20T11:02:49;28.00;65.68
49489;SHT31;35382;51.484;11.476;2023-08-20T11:05:19;27.79;65.66
49489;SHT31;35382;51.484;11.476;2023-08-20T11:07:45;28.22;66.05
49489;SHT31;35382;51.484;11.476;2023-08-20T11:10:11;28.49;66.56
49489;SHT31;35382;51.484;11.476;2023-08-20T11:12:37;28.65;64.44
49489;SHT31;35382;51.484;11.476;2023-08-20T11:15:03;28.29;63.33
49489;SHT31;35382;51.484;11.476;2023-08-20T11:17:29;28.28;64.62
49489;SHT31;35382;51.484;11.476;2023-08-20T11:19:54;28.52;66.96
49489;SHT31;35382;51.484;11.476;2023-08-20T11:22:19;28.44;66.70
49489;SHT31;35382;51.484;11.476;2023-08-20T11:24:46;28.14;64.09
49489;SHT31;35382;51.484;11.476;2023-08-20T11:27:14;28.49;64.02
49489;SHT31;35382;51.484;11.476;2023-08-20T11:29:43;28.68;66.06
49489;SHT31;35382;51.484;11.476;2023-08-20T11:32:09;28.31;65.66
49489;SHT31;35382;51.484;11.476;2023-08-20T11:34:34;28.18;67.61
49489;SHT31;35382;51.484;11.476;2023-08-20T11:37:00;28.31;63.92
49489;SHT31;35382;51.484;11.476;2023-08-20T11:39:25;28.71;64.95
49489;SHT31;35382;51.484;11.476;2023-08-20T11:41:51;28.78;64.82
49489;SHT31;35382;51.484;11.476;2023-08-20T11:44:20;28.78;65.63
49489;SHT31;35382;51.484;11.476;2023-08-20T11:46:45;28.88;64.67
49489;SHT31;35382;51.484;11.476;2023-08-20T11:49:12;28.65;64.69
49489;SHT31;35382;51.484;11.476;2023-08-20T11:51:47;28.94;64.96
49489;SHT31;35382;51.484;11.476;2023-08-20T11:54:14;28.85;64.89
49489;SHT31;35382;51.484;11.476;2023-08-20T11:56:50;29.33;65.73
49489;SHT31;35382;51.484;11.476;2023-08-20T11:59:17;29.84;62.51
49489;SHT31;35382;51.484;11.476;2023-08-20T12:01:50;30.26;64.66
49489;SHT31;35382;51.484;11.476;2023-08-20T12:04:15;30.31;66.32
49489;SHT31;35382;51.484;11.476;2023-08-20T12:06:41;29.62;62.32
49489;SHT31;35382;51.484;11.476;2023-08-20T12:09:22;29.42;63.78
49489;SHT31;35382;51.484;11.476;2023-08-20T12:11:49;29.93;62.79
49489;SHT31;35382;51.484;11.476;2023-08-20T12:14:14;30.10;63.47
49489;SHT31;35382;51.484;11.476;2023-08-20T12:16:40;29.82;64.14
49489;SHT31;35382;51.484;11.476;2023-08-20T12:19:05;29.77;62.82
49489;SHT31;35382;51.484;11.476;2023-08-20T12:21:31;28.94;63.92
49489;SHT31;35382;51.484;11.476;2023-08-20T12:23:56;29.15;64.62
49489;SHT31;35382;51.484;11.476;2023-08-20T12:26:21;29.19;63.99
49489;SHT31;35382;51.484;11.476;2023-08-20T12:28:47;29.63;61.14
49489;SHT31;35382;51.484;11.476;2023-08-20T12:31:12;29.53;63.52
49489;SHT31;35382;51.484;11.476;2023-08-20T12:33:37;29.89;64.23
49489;SHT31;35382;51.484;11.476;2023-08-20T12:36:03;29.45;63.90
49489;SHT31;35382;51.484;11.476;2023-08-20T12:38:29;29.43;64.90
49489;SHT31;35382;51.484;11.476;2023-08-20T12:40:54;29.32;64.34
49489;SHT31;35382;51.484;11.476;2023-08-20T12:43:19;29.49;64.57
49489;SHT31;35382;51.484;11.476;2023-08-20T12:45:45;29.38;63.65
49489;SHT31;35382;51.484;11.476;2023-08-20T12:48:10;28.98;63.10
49489;SHT31;35382;51.484;11.476;2023-08-20T12:50:36;28.75;63.54
49489;SHT31;35382;51.484;11.476;2023-08-20T12:53:01;29.09;63.96
49489;SHT31;35382;51.484;11.476;2023-08-20T12:55:26;29.25;63.58
49489;SHT31;35382;51.484;11.476;2023-08-20T12:57:57;29.56;63.23
49489;SHT31;35382;51.484;11.476;2023-08-20T13:00:23;29.42;61.73
49489;SHT31;35382;51.484;11.476;2023-08-20T13:02:49;28.99;63.85
49489;SHT31;35382;51.484;11.476;2023-08-20T13:05:15;28.57;64.81
49489;SHT31;35382;51.484;11.476;2023-08-20T13:07:41;28.51;65.86
49489;SHT31;35382;51.484;11.476;2023-08-20T13:10:08;28.18;66.56
49489;SHT31;35382;51.484;11.476;2023-08-20T13:12:34;28.07;66.30
49489;SHT31;35382;51.484;11.476;2023-08-20T13:15:00;27.93;65.48
49489;SHT31;35382;51.484;11.476;2023-08-20T13:17:26;27.97;67.07
49489;SHT31;35382;51.484;11.476;2023-08-20T13:19:52;27.96;66.54
49489;SHT31;35382;51.484;11.476;2023-08-20T13:22:17;27.79;67.41
49489;SHT31;35382;51.484;11.476;2023-08-20T13:24:43;27.50;67.21
49489;SHT31;35382;51.484;11.476;2023-08-20T13:27:08;27.43;67.80
49489;SHT31;35382;51.484;11.476;2023-08-20T13:29:34;27.43;67.02
49489;SHT31;35382;51.484;11.476;2023-08-20T13:31:59;27.43;67.86
49489;SHT31;35382;51.484;11.476;2023-08-20T13:34:25;27.61;68.84
49489;SHT31;35382;51.484;11.476;2023-08-20T13:36:50;28.21;66.20
49489;SHT31;35382;51.484;11.476;2023-08-20T13:39:15;28.81;66.40
49489;SHT31;35382;51.484;11.476;2023-08-20T13:41:41;29.05;65.26
49489;SHT31;35382;51.484;11.476;2023-08-20T13:44:07;28.49;66.84
49489;SHT31;35382;51.484;11.476;2023-08-20T13:46:32;28.62;68.51
49489;SHT31;35382;51.484;11.476;2023-08-20T13:48:58;28.18;67.18
49489;SHT31;35382;51.484;11.476;2023-08-20T13:51:23;28.40;66.30
49489;SHT31;35382;51.484;11.476;2023-08-20T13:53:48;28.27;66.63
49489;SHT31;35382;51.484;11.476;2023-08-20T13:56:14;28.36;66.98
49489;SHT31;35382;51.484;11.476;2023-08-20T13:58:39;27.96;67.48
49489;SHT31;35382;51.484;11.476;2023-08-20T14:01:05;27.73;67.07
49489;SHT31;35382;51.484;11.476;2023-08-20T14:03:30;27.60;68.85
49489;SHT31;35382;51.484;11.476;2023-08-20T14:05:56;27.46;68.08
49489;SHT31;35382;51.484;11.476;2023-08-20T14:08:21;27.36;68.61
49489;SHT31;35382;51.484;11.476;2023-08-20T14:10:47;27.50;69.42
49489;SHT31;35382;51.484;11.476;2023-08-20T14:13:13;27.50;68.18
49489;SHT31;35382;51.484;11.476;2023-08-20T14:15:39;27.29;69.17
49489;SHT31;35382;51.484;11.476;2023-08-20T14:18:04;27.36;68.76
49489;SHT31;35382;51.484;11.476;2023-08-20T14:20:30;27.26;69.46
49489;SHT31;35382;51.484;11.476;2023-08-20T14:22:56;27.96;69.16
49489;SHT31;35382;51.484;11.476;2023-08-20T14:25:21;28.59;67.81
49489;SHT31;35382;51.484;11.476;2023-08-20T14:27:46;28.76;67.08
49489;SHT31;35382;51.484;11.476;2023-08-20T14:30:12;28.98;66.51
49489;SHT31;35382;51.484;11.476;2023-08-20T14:32:37;29.27;66.53
49489;SHT31;35382;51.484;11.476;2023-08-20T14:35:03;29.23;65.00
49489;SHT31;35382;51.484;11.476;2023-08-20T14:37:28;29.30;65.32
49489;SHT31;35382;51.484;11.476;2023-08-20T14:39:54;29.18;67.78
49489;SHT31;35382;51.484;11.476;2023-08-20T14:42:19;29.38;67.10
49489;SHT31;35382;51.484;11.476;2023-08-20T14:44:45;29.30;66.35
49489;SHT31;35382;51.484;11.476;2023-08-20T14:47:11;29.70;64.43
49489;SHT31;35382;51.484;11.476;2023-08-20T14:49:36;29.62;67.00
49489;SHT31;35382;51.484;11.476;2023-08-20T14:52:01;30.07;66.81
49489;SHT31;35382;51.484;11.476;2023-08-20T14:54:27;29.74;65.06
49489;SHT31;35382;51.484;11.476;2023-08-20T14:56:53;29.90;66.77
49489;SHT31;35382;51.484;11.476;2023-08-20T14:59:18;30.28;64.84
49489;SHT31;35382;51.484;11.476;2023-08-20T15:01:43;29.97;62.66
49489;SHT31;35382;51.484;11.476;2023-08-20T15:04:09;30.03;62.88
49489;SHT31;35382;51.484;11.476;2023-08-20T15:06:34;30.02;63.20
49489;SHT31;35382;51.484;11.476;2023-08-20T15:09:00;30.00;63.28
49489;SHT31;35382;51.484;11.476;2023-08-20T15:11:25;29.94;64.84
49489;SHT31;35382;51.484;11.476;2023-08-20T15:13:50;29.72;63.00
49489;SHT31;35382;51.484;11.476;2023-08-20T15:16:16;29.69;63.37
49489;SHT31;35382;51.484;11.476;2023-08-20T15:18:41;29.70;63.63